Time;durP1;ratioP1;P1;durP2;ratioP2;P2;SDS_P1;SDS_P2;PMS_P1;PMS_P2;Temp;Humidity;BMP_temperature;BMP_pressure;BME280_temperature;BME280_humidity;BME280_pressure;Samples;Min_cycle;Max_cycle;Signal;HPM_P1;HPM_P2
2022/02/24 00:01:47;;;;;;;3.40;1.70;;;6.20;1.00;;;;;;5075886;28;20778;-74
2022/02/24 00:04:12;;;;;;;2.70;1.93;;;6.20;1.00;;;;;;5079049;28;20423;-74
2022/02/24 00:06:38;;;;;;;2.33;2.13;;;6.20;1.00;;;;;;5080578;28;20427;-74
2022/02/24 00:09:04;;;;;;;1.97;1.80;;;6.30;1.00;;;;;;5081164;28;20629;-74
2022/02/24 00:11:32;;;;;;;2.60;2.00;;;6.20;1.00;;;;;;5092284;28;20655;-74
2022/02/24 00:13:57;;;;;;;13.97;1.80;;;6.20;1.00;;;;;;5073437;28;20417;-74
2022/02/24 00:16:24;;;;;;;6.13;2.60;;;6.30;1.00;;;;;;5078231;28;20460;-74
2022/02/24 00:18:49;;;;;;;3.07;2.13;;;6.30;1.00;;;;;;5074104;28;20413;-74
2022/02/24 00:21:15;;;;;;;2.90;1.83;;;6.30;1.00;;;;;;5079965;28;20492;-74
2022/02/24 00:23:41;;;;;;;7.37;2.37;;;;;;;;;;5074804;28;20228;-74
2022/02/24 00:26:06;;;;;;;2.33;1.63;;;6.20;1.00;;;;;;5074233;28;20197;-74
2022/02/24 00:28:32;;;;;;;4.57;1.80;;;6.20;1.00;;;;;;5074668;28;20417;-74
2022/02/24 00:30:58;;;;;;;6.43;2.07;;;6.20;1.00;;;;;;5080760;28;20563;-73
2022/02/24 00:33:23;;;;;;;5.60;2.03;;;6.10;1.00;;;;;;5086692;28;20179;-74
2022/02/24 00:35:49;;;;;;;3.97;2.00;;;6.10;1.00;;;;;;5073663;28;20230;-74
2022/02/24 00:38:14;;;;;;;3.33;1.93;;;6.00;1.00;;;;;;5085325;28;20187;-74
2022/02/24 00:40:40;;;;;;;5.90;1.83;;;6.00;1.00;;;;;;5085396;28;20175;-73
2022/02/24 00:43:06;;;;;;;7.40;1.90;;;6.00;1.00;;;;;;5075151;28;20171;-74
2022/02/24 00:45:32;;;;;;;2.70;1.67;;;6.00;1.00;;;;;;5080350;28;20685;-74
2022/02/24 00:47:58;;;;;;;4.20;1.67;;;5.90;1.00;;;;;;5093259;28;20646;-74
2022/02/24 00:50:24;;;;;;;5.87;2.23;;;5.90;1.00;;;;;;5079191;28;20534;-74
2022/02/24 00:52:50;;;;;;;9.53;2.20;;;5.90;1.00;;;;;;5074094;28;20504;-74
2022/02/24 00:55:16;;;;;;;4.70;1.83;;;5.90;1.00;;;;;;5079861;28;20982;-74
2022/02/24 00:57:41;;;;;;;4.47;1.90;;;5.80;1.00;;;;;;5073234;28;20167;-74
2022/02/24 01:00:08;;;;;;;3.73;2.60;;;5.90;1.00;;;;;;5080260;28;20424;-74
2022/02/24 01:02:37;;;;;;;4.90;2.30;;;5.90;1.00;;;;;;5074424;28;20178;-74
2022/02/24 01:05:03;;;;;;;2.50;2.23;;;5.90;1.00;;;;;;5073547;28;20421;-74
2022/02/24 01:07:28;;;;;;;4.20;2.30;;;5.90;1.00;;;;;;5073309;28;20776;-74
2022/02/24 01:09:54;;;;;;;4.23;2.33;;;6.00;1.00;;;;;;5072229;28;20417;-74
2022/02/24 01:12:20;;;;;;;3.40;2.80;;;5.90;1.00;;;;;;5086387;28;20179;-74
2022/02/24 01:14:45;;;;;;;4.73;2.10;;;5.90;1.00;;;;;;5080899;28;20202;-73
2022/02/24 01:17:11;;;;;;;5.70;2.37;;;6.00;1.00;;;;;;5074055;28;20225;-74
2022/02/24 01:19:36;;;;;;;5.67;2.10;;;6.00;1.00;;;;;;5073064;28;20186;-74
2022/02/24 01:22:02;;;;;;;3.90;2.27;;;6.00;1.00;;;;;;5082214;28;20178;-74
2022/02/24 01:24:28;;;;;;;4.60;2.60;;;6.10;1.00;;;;;;5083224;28;20174;-74
2022/02/24 01:26:53;;;;;;;4.93;2.00;;;6.00;1.00;;;;;;5074025;28;20417;-73
2022/02/24 01:29:19;;;;;;;6.00;3.23;;;6.10;1.00;;;;;;5085064;28;20226;-74
2022/02/24 01:31:45;;;;;;;8.00;4.20;;;6.20;1.00;;;;;;5075370;28;20182;-74
2022/02/24 01:34:11;;;;;;;9.57;3.73;;;;;;;;;;5073175;28;20264;-74
2022/02/24 01:36:36;;;;;;;9.57;3.40;;;6.20;1.00;;;;;;5071961;28;20170;-74
2022/02/24 01:39:03;;;;;;;9.60;3.90;;;6.20;1.00;;;;;;5072896;28;20510;-74
2022/02/24 01:41:28;;;;;;;9.33;3.50;;;6.20;1.00;;;;;;5083148;28;20174;-74
2022/02/24 01:43:54;;;;;;;9.53;4.13;;;6.40;1.00;;;;;;5089439;28;20849;-74
2022/02/24 01:46:20;;;;;;;7.93;4.10;;;6.30;1.00;;;;;;5085379;28;20182;-74
2022/02/24 01:48:45;;;;;;;9.27;4.00;;;6.40;1.00;;;;;;5092635;28;20181;-74
2022/02/24 01:51:11;;;;;;;9.83;3.43;;;6.40;1.00;;;;;;5088829;28;20201;-74
2022/02/24 01:53:37;;;;;;;6.30;3.47;;;;;;;;;;5074777;28;20194;-74
2022/02/24 01:56:06;;;;;;;12.57;3.70;;;6.40;1.00;;;;;;5075810;28;20612;-74
2022/02/24 01:58:32;;;;;;;11.27;4.20;;;6.50;1.00;;;;;;5073031;28;20485;-74
2022/02/24 02:00:57;;;;;;;7.23;4.03;;;6.50;1.00;;;;;;5073195;28;20433;-74
2022/02/24 02:03:23;;;;;;;9.63;4.20;;;6.50;1.00;;;;;;5080478;28;20182;-74
2022/02/24 02:05:49;;;;;;;6.90;4.63;;;;;;;;;;5072894;28;20212;-74
2022/02/24 02:08:15;;;;;;;10.10;4.20;;;;;;;;;;5072853;28;20328;-74
2022/02/24 02:10:41;;;;;;;6.87;3.77;;;;;;;;;;5072489;28;20416;-74
2022/02/24 02:13:07;;;;;;;7.27;4.73;;;;;;;;;;5074827;28;20857;-74
2022/02/24 02:15:33;;;;;;;7.00;3.90;;;;;;;;;;5075630;28;20902;-74
2022/02/24 02:17:59;;;;;;;7.90;4.40;;;6.60;1.00;;;;;;5072985;28;20401;-74
2022/02/24 02:20:25;;;;;;;8.60;4.33;;;;;;;;;;5072469;28;20835;-74
2022/02/24 02:22:52;;;;;;;4.70;3.43;;;6.80;1.00;;;;;;5083703;28;20648;-74
2022/02/24 02:25:20;;;;;;;9.30;3.30;;;6.70;1.00;;;;;;5072979;28;20440;-74
2022/02/24 02:27:47;;;;;;;9.53;3.83;;;6.70;1.00;;;;;;5072713;28;20433;-74
2022/02/24 02:30:14;;;;;;;5.53;4.20;;;;;;;;;;5091193;28;20485;-74
2022/02/24 02:32:39;;;;;;;9.53;4.03;;;6.70;1.00;;;;;;5088319;28;20438;-74
2022/02/24 02:35:05;;;;;;;7.57;4.10;;;6.80;1.00;;;;;;5084840;28;20986;-74
2022/02/24 02:37:32;;;;;;;12.90;4.23;;;6.80;1.00;;;;;;5075270;28;20197;-74
2022/02/24 02:39:57;;;;;;;9.60;3.93;;;6.80;1.00;;;;;;5072973;28;20521;-74
2022/02/24 02:42:23;;;;;;;8.13;4.37;;;6.80;1.00;;;;;;5073764;28;20511;-74
2022/02/24 02:44:49;;;;;;;6.90;4.20;;;6.80;1.00;;;;;;5071358;28;20189;-74
2022/02/24 02:47:14;;;;;;;10.93;4.17;;;6.80;1.00;;;;;;5085341;28;20183;-74
2022/02/24 02:49:40;;;;;;;6.93;4.50;;;6.80;1.00;;;;;;5072356;28;20185;-74
2022/02/24 02:52:07;;;;;;;5.97;4.00;;;6.90;1.00;;;;;;5082769;28;20544;-74
2022/02/24 02:54:33;;;;;;;8.13;4.73;;;7.40;1.00;;;;;;5083686;28;20200;-74
2022/02/24 02:56:59;;;;;;;11.67;4.53;;;6.90;1.00;;;;;;5072133;28;20417;-74
2022/02/24 02:59:25;;;;;;;11.30;4.13;;;6.90;1.00;;;;;;5072253;28;20523;-74
2022/02/24 03:01:54;;;;;;;4.17;3.50;;;6.90;1.00;;;;;;5075919;28;20619;-74
2022/02/24 03:04:21;;;;;;;16.23;4.20;;;6.90;1.00;;;;;;5081847;28;20186;-74
2022/02/24 03:06:47;;;;;;;10.57;4.23;;;6.90;1.00;;;;;;5081540;28;20409;-74
2022/02/24 03:09:13;;;;;;;5.40;3.60;;;6.90;1.00;;;;;;5078570;28;20420;-74
2022/02/24 03:11:39;;;;;;;11.90;4.60;;;7.00;1.00;;;;;;5081352;28;20427;-74
2022/02/24 03:14:05;;;;;;;4.30;3.37;;;7.00;1.00;;;;;;5077735;28;20205;-74
2022/02/24 03:16:30;;;;;;;7.80;4.20;;;6.90;1.00;;;;;;5077881;28;20207;-75
2022/02/24 03:18:56;;;;;;;11.60;4.30;;;6.90;1.00;;;;;;5095597;28;20572;-74
2022/02/24 03:21:22;;;;;;;8.53;3.90;;;6.90;1.00;;;;;;5077867;28;20171;-74
2022/02/24 03:23:49;;;;;;;14.53;4.60;;;6.90;1.00;;;;;;5084697;28;20174;-74
2022/02/24 03:26:14;;;;;;;12.17;5.00;;;6.90;1.00;;;;;;5081112;28;20709;-74
2022/02/24 03:28:40;;;;;;;18.80;4.43;;;7.80;1.00;;;;;;5075812;28;20480;-74
2022/02/24 03:31:07;;;;;;;7.23;3.90;;;7.00;1.00;;;;;;5075596;28;20187;-74
2022/02/24 03:33:33;;;;;;;8.03;4.20;;;7.00;1.00;;;;;;5080377;28;20187;-74
2022/02/24 03:35:58;;;;;;;10.40;4.77;;;7.00;1.00;;;;;;5081528;28;20452;-74
2022/02/24 03:38:24;;;;;;;14.27;4.30;;;;;;;;;;5079267;28;20219;-74
2022/02/24 03:40:50;;;;;;;13.23;4.60;;;;;;;;;;5080721;28;20642;-74
2022/02/24 03:43:16;;;;;;;6.07;3.83;;;7.00;1.00;;;;;;5075216;28;20412;-74
2022/02/24 03:45:43;;;;;;;8.10;4.23;;;7.00;1.00;;;;;;5082931;28;20410;-74
2022/02/24 03:48:09;;;;;;;6.57;4.37;;;7.00;1.00;;;;;;5088299;28;20256;-74
2022/02/24 03:50:34;;;;;;;8.60;4.50;;;7.00;1.00;;;;;;5078129;28;20477;-74
2022/02/24 03:53:00;;;;;;;6.37;4.07;;;7.00;1.00;;;;;;5074951;28;20679;-75
2022/02/24 03:55:25;;;;;;;7.97;5.07;;;7.00;1.00;;;;;;5076323;28;20218;-74
2022/02/24 03:57:51;;;;;;;9.90;4.70;;;7.00;1.00;;;;;;5081732;28;20232;-74
2022/02/24 04:00:17;;;;;;;9.97;5.00;;;7.00;1.00;;;;;;5074942;28;20258;-74
2022/02/24 04:02:43;;;;;;;9.00;4.70;;;7.00;1.00;;;;;;5080664;28;20193;-74
2022/02/24 04:05:10;;;;;;;7.93;4.57;;;7.00;1.00;;;;;;5085299;28;20870;-74
2022/02/24 04:07:36;;;;;;;8.17;4.80;;;7.10;1.00;;;;;;5074597;28;20759;-74
2022/02/24 04:10:04;;;;;;;6.30;4.20;;;7.10;1.00;;;;;;5077901;28;20424;-74
2022/02/24 04:12:29;;;;;;;12.10;5.40;;;7.10;1.00;;;;;;5077872;28;20417;-74
2022/02/24 04:14:55;;;;;;;10.57;5.60;;;7.10;1.00;;;;;;5080415;28;20455;-74
2022/02/24 04:17:21;;;;;;;10.93;5.50;;;7.20;1.00;;;;;;5074510;28;20229;-74
2022/02/24 04:19:47;;;;;;;8.73;4.90;;;;;;;;;;5074572;28;20249;-74
2022/02/24 04:22:13;;;;;;;6.87;5.00;;;7.10;1.00;;;;;;5077506;28;20170;-74
2022/02/24 04:24:39;;;;;;;14.57;5.80;;;;;;;;;;5074665;28;20420;-74
2022/02/24 04:27:05;;;;;;;13.03;5.60;;;7.20;1.00;;;;;;5074205;28;20175;-74
2022/02/24 04:29:30;;;;;;;9.60;5.37;;;7.10;1.00;;;;;;5074201;28;20409;-74
2022/02/24 04:31:56;;;;;;;13.67;5.43;;;7.10;1.00;;;;;;5074679;28;20444;-74
2022/02/24 04:34:22;;;;;;;9.17;5.07;;;7.10;1.00;;;;;;5074332;28;20661;-74
2022/02/24 04:36:47;;;;;;;13.57;4.93;;;7.20;1.00;;;;;;5084575;28;20676;-74
2022/02/24 04:39:13;;;;;;;11.33;4.70;;;7.20;1.00;;;;;;5074277;28;20206;-74
2022/02/24 04:41:39;;;;;;;9.80;5.33;;;7.20;1.00;;;;;;5076206;28;20179;-74
2022/02/24 04:44:04;;;;;;;10.83;5.40;;;7.20;1.00;;;;;;5080632;28;20189;-74
2022/02/24 04:46:31;;;;;;;7.90;4.73;;;7.10;1.00;;;;;;5080819;28;20224;-74
2022/02/24 04:48:58;;;;;;;6.23;4.60;;;8.30;1.00;;;;;;5079903;28;20183;-74
2022/02/24 04:51:23;;;;;;;10.30;4.80;;;7.40;1.00;;;;;;5079704;28;20468;-74
2022/02/24 04:53:49;;;;;;;10.20;4.83;;;7.30;1.00;;;;;;5080251;28;20456;-74
2022/02/24 04:56:14;;;;;;;8.77;5.33;;;7.40;1.00;;;;;;5075820;28;20283;-74
2022/02/24 04:58:40;;;;;;;10.93;5.90;;;7.40;1.00;;;;;;5073372;28;20413;-74
2022/02/24 05:01:06;;;;;;;10.27;5.87;;;7.40;1.00;;;;;;5077904;28;20175;-74
2022/02/24 05:03:37;;;;;;;9.90;5.27;;;7.40;1.00;;;;;;5078199;28;20171;-74
2022/02/24 05:06:03;;;;;;;12.03;5.90;;;7.50;1.00;;;;;;5072373;28;20599;-74
2022/02/24 05:08:30;;;;;;;9.67;5.10;;;7.50;1.00;;;;;;5082192;28;20427;-74
2022/02/24 05:10:56;;;;;;;8.90;5.23;;;;;;;;;;5073405;28;20198;-74
2022/02/24 05:13:22;;;;;;;11.67;4.60;;;7.50;1.00;;;;;;5079938;28;20455;-74
2022/02/24 05:15:49;;;;;;;10.27;6.10;;;7.50;1.00;;;;;;5083068;28;20460;-74
2022/02/24 05:18:14;;;;;;;7.70;5.10;;;7.50;1.00;;;;;;5078718;28;20183;-74
2022/02/24 05:20:40;;;;;;;15.20;5.30;;;;;;;;;;5075339;28;21688;-74
2022/02/24 05:23:06;;;;;;;10.30;5.83;;;7.50;1.00;;;;;;5078013;28;20409;-74
2022/02/24 05:25:36;;;;;;;6.67;5.00;;;;;;;;;;5073071;28;20437;-74
2022/02/24 05:28:06;;;;;;;12.87;5.80;;;7.60;1.00;;;;;;5072977;28;20297;-74
2022/02/24 05:30:32;;;;;;;7.30;5.13;;;7.50;1.00;;;;;;5073456;28;20417;-75
2022/02/24 05:32:57;;;;;;;10.77;5.00;;;7.50;1.00;;;;;;5076682;28;20395;-75
2022/02/24 05:35:23;;;;;;;7.93;4.90;;;7.50;1.00;;;;;;5082564;28;20189;-75
2022/02/24 05:37:48;;;;;;;13.63;5.03;;;7.50;1.00;;;;;;5077235;28;20237;-74
2022/02/24 05:40:15;;;;;;;6.87;4.70;;;;;;;;;;5083656;28;20202;-75
2022/02/24 05:42:43;;;;;;;8.97;4.50;;;7.50;1.00;;;;;;5081132;28;20181;-75
2022/02/24 05:45:09;;;;;;;8.80;5.30;;;7.40;1.00;;;;;;5085026;28;20539;-75
2022/02/24 05:47:35;;;;;;;12.60;5.30;;;;;;;;;;5073156;28;20524;-74
2022/02/24 05:50:02;;;;;;;9.03;4.90;;;7.40;1.00;;;;;;5078529;28;20980;-74
2022/02/24 05:52:28;;;;;;;6.40;4.40;;;7.40;1.00;;;;;;5072980;28;20417;-75
2022/02/24 05:54:54;;;;;;;13.80;4.93;;;7.50;1.00;;;;;;5074809;28;20500;-74
2022/02/24 05:57:20;;;;;;;12.43;5.93;;;7.50;1.00;;;;;;5085101;28;20441;-74
2022/02/24 05:59:46;;;;;;;7.93;5.03;;;;;;;;;;5072435;28;20171;-74
2022/02/24 06:02:11;;;;;;;7.97;5.07;;;7.40;1.00;;;;;;5074455;28;20201;-74
2022/02/24 06:04:37;;;;;;;9.37;4.57;;;7.40;1.00;;;;;;5072499;28;20920;-75
2022/02/24 06:07:03;;;;;;;9.50;4.50;;;7.40;1.00;;;;;;5080114;28;20185;-75
2022/02/24 06:09:28;;;;;;;8.27;4.20;;;7.40;1.00;;;;;;5077438;28;20261;-75
2022/02/24 06:11:54;;;;;;;8.20;4.50;;;7.40;1.00;;;;;;5078286;28;20603;-75
2022/02/24 06:14:20;;;;;;;11.40;4.93;;;7.40;1.00;;;;;;5072475;28;20634;-75
2022/02/24 06:16:45;;;;;;;11.30;4.80;;;7.40;1.00;;;;;;5082656;28;20211;-74
2022/02/24 06:19:11;;;;;;;10.40;5.37;;;7.40;1.00;;;;;;5080279;28;20178;-75
2022/02/24 06:21:37;;;;;;;13.27;4.97;;;7.40;1.00;;;;;;5076991;28;20167;-75
2022/02/24 06:24:02;;;;;;;8.70;5.07;;;7.40;1.00;;;;;;5083995;28;20423;-75
2022/02/24 06:26:28;;;;;;;7.43;4.73;;;7.40;1.00;;;;;;5081029;28;20589;-75
2022/02/24 06:28:54;;;;;;;11.23;4.77;;;7.40;1.00;;;;;;5072573;28;20190;-76
2022/02/24 06:31:19;;;;;;;8.10;4.77;;;7.40;1.00;;;;;;5073456;28;20182;-76
2022/02/24 06:33:45;;;;;;;10.77;6.93;;;7.40;1.00;;;;;;5079019;28;20178;-76
2022/02/24 06:36:11;;;;;;;6.17;4.37;;;7.30;1.00;;;;;;5079239;28;20195;-76
2022/02/24 06:38:36;;;;;;;8.30;4.50;;;7.40;1.00;;;;;;5083631;28;20528;-76
2022/02/24 06:41:02;;;;;;;7.23;4.43;;;7.30;1.00;;;;;;5081489;28;20253;-76
2022/02/24 06:43:28;;;;;;;5.23;4.20;;;7.30;1.00;;;;;;5082777;28;20311;-76
2022/02/24 06:45:56;;;;;;;7.90;4.70;;;7.30;1.00;;;;;;5085221;28;20181;-76
2022/02/24 06:48:24;;;;;;;7.33;4.50;;;7.30;1.00;;;;;;5078200;28;20171;-76
2022/02/24 06:50:50;;;;;;;14.33;4.87;;;7.40;1.00;;;;;;5086593;28;20926;-76
2022/02/24 06:53:16;;;;;;;9.30;4.97;;;;;;;;;;5076212;28;20429;-76
2022/02/24 06:55:42;;;;;;;10.73;4.40;;;7.40;1.00;;;;;;5082855;28;20458;-76
2022/02/24 06:58:07;;;;;;;14.13;4.90;;;7.40;1.00;;;;;;5088455;28;20399;-76
2022/02/24 08:48:50;;;;;;;11.47;5.07;;;8.90;1.00;;;;;;5082495;27;21137;-73
2022/02/24 08:51:16;;;;;;;8.70;5.07;;;9.10;1.00;;;;;;5090079;28;20424;-73
2022/02/24 08:53:42;;;;;;;9.87;5.60;;;9.40;1.00;;;;;;5090282;28;20394;-75
2022/02/24 08:56:08;;;;;;;5.37;4.83;;;9.40;1.00;;;;;;5090119;28;20163;-74
2022/02/24 08:58:34;;;;;;;9.53;5.00;;;9.40;1.00;;;;;;5089879;28;20466;-74
2022/02/24 09:00:59;;;;;;;9.33;5.03;;;9.50;1.00;;;;;;5089707;28;20169;-74
2022/02/24 09:03:25;;;;;;;7.77;5.10;;;10.00;1.00;;;;;;5090040;28;20394;-74
2022/02/24 09:05:51;;;;;;;10.33;4.60;;;10.60;1.00;;;;;;5089202;28;20171;-74
2022/02/24 09:08:16;;;;;;;7.33;5.00;;;10.40;1.00;;;;;;5089900;28;20174;-74
2022/02/24 09:10:42;;;;;;;9.90;5.00;;;9.80;1.00;;;;;;5089529;28;20476;-74
2022/02/24 09:13:08;;;;;;;8.00;4.77;;;10.10;1.00;;;;;;5089728;28;20209;-75
2022/02/24 09:15:35;;;;;;;9.10;5.10;;;10.40;1.00;;;;;;5089678;28;20527;-75
2022/02/24 09:18:04;;;;;;;5.70;4.40;;;10.30;1.00;;;;;;5089883;28;20444;-75
2022/02/24 09:20:31;;;;;;;5.40;4.30;;;10.60;1.00;;;;;;5089372;28;20444;-75
2022/02/24 09:22:56;;;;;;;9.73;5.23;;;10.70;1.00;;;;;;5089979;28;20452;-74
2022/02/24 09:25:23;;;;;;;10.77;5.30;;;10.80;1.00;;;;;;5085307;28;20523;-74
2022/02/24 09:27:50;;;;;;;9.70;4.63;;;10.90;1.00;;;;;;5101977;28;20182;-75
2022/02/24 09:30:16;;;;;;;6.90;4.80;;;11.00;1.00;;;;;;5088112;28;20573;-75
2022/02/24 09:32:43;;;;;;;6.57;4.17;;;10.80;1.00;;;;;;5089628;28;20401;-75
2022/02/24 09:35:11;;;;;;;8.93;4.80;;;10.90;1.00;;;;;;5088942;28;20530;-75
2022/02/24 09:37:37;;;;;;;7.83;4.30;;;10.90;1.00;;;;;;5086503;28;20465;-75
2022/02/24 09:40:05;;;;;;;8.27;4.70;;;11.00;1.00;;;;;;5084963;28;20855;-75
2022/02/24 09:42:30;;;;;;;5.30;4.57;;;11.10;1.00;;;;;;5088630;28;20796;-75
2022/02/24 09:44:56;;;;;;;9.53;5.03;;;11.20;1.00;;;;;;5088734;28;20482;-75
2022/02/24 09:47:24;;;;;;;7.10;4.53;;;11.30;1.00;;;;;;5087335;28;20460;-75
2022/02/24 09:49:53;;;;;;;6.77;4.73;;;11.50;1.00;;;;;;5075610;28;20603;-75
2022/02/24 09:52:18;;;;;;;9.10;4.80;;;11.60;1.00;;;;;;5075511;28;20425;-75
2022/02/24 09:54:46;;;;;;;9.50;4.13;;;11.80;1.00;;;;;;5075579;28;20419;-74
2022/02/24 09:57:12;;;;;;;7.10;4.70;;;11.90;1.00;;;;;;5074355;28;20225;-74
2022/02/24 09:59:38;;;;;;;5.80;4.00;;;12.00;1.00;;;;;;5089671;28;20942;-74
2022/02/24 10:02:04;;;;;;;5.50;4.20;;;12.40;1.00;;;;;;5059326;28;20232;-74
2022/02/24 10:04:30;;;;;;;9.07;4.73;;;12.40;1.00;;;;;;5073685;28;20174;-74
2022/02/24 10:06:55;;;;;;;5.87;4.30;;;12.30;1.00;;;;;;5066878;28;20438;-74
2022/02/24 10:09:31;;;;;;;7.63;4.33;;;12.40;1.00;;;;;;5070126;28;20178;-74
2022/02/24 10:12:08;;;;;;;5.20;3.90;;;12.30;1.00;;;;;;5055200;28;20151;-74
2022/02/24 10:14:35;;;;;;;7.80;4.30;;;12.30;1.00;;;;;;5064093;28;20968;-74
2022/02/24 10:17:04;;;;;;;6.37;4.33;;;12.30;1.00;;;;;;5075073;28;20918;-74
2022/02/24 10:19:43;;;;;;;10.60;4.00;;;12.30;1.00;;;;;;5073769;28;20399;-74
2022/02/24 10:22:25;;;;;;;9.63;4.17;;;12.20;1.00;;;;;;5074306;28;20431;-74
2022/02/24 10:24:56;;;;;;;5.90;4.10;;;12.10;1.00;;;;;;5075161;28;20372;-74
2022/02/24 10:27:29;;;;;;;6.50;3.70;;;12.20;1.00;;;;;;5074944;28;20453;-74
2022/02/24 10:30:16;;;;;;;7.20;4.23;;;12.20;1.00;;;;;;5074445;28;20373;-74
2022/02/24 10:32:44;;;;;;;13.63;4.17;;;12.20;1.00;;;;;;5074714;28;20440;-74
2022/02/24 10:35:34;;;;;;;7.90;4.17;;;12.20;1.00;;;;;;5074486;28;20400;-74
2022/02/24 10:38:11;;;;;;;6.40;3.73;;;12.10;1.00;;;;;;5075168;28;20445;-74
2022/02/24 10:40:38;;;;;;;5.50;3.80;;;12.10;1.00;;;;;;5074622;28;20728;-74
2022/02/24 10:43:17;;;;;;;10.50;4.30;;;12.20;1.00;;;;;;5074629;28;20406;-74
2022/02/24 10:46:01;;;;;;;5.87;3.90;;;12.20;1.00;;;;;;5073882;28;20390;-74
2022/02/24 10:48:30;;;;;;;8.50;4.30;;;12.20;1.00;;;;;;5071723;28;20443;-74
2022/02/24 10:51:01;;;;;;;6.50;3.90;;;12.20;1.00;;;;;;5073913;28;20418;-75
2022/02/24 10:53:29;;;;;;;10.30;4.17;;;12.20;1.00;;;;;;5071222;28;20793;-74
2022/02/24 10:56:05;;;;;;;10.20;3.57;;;12.20;1.00;;;;;;5073950;28;20396;-74
2022/02/24 10:58:42;;;;;;;4.10;3.53;;;12.40;1.00;;;;;;5073978;28;20909;-74
2022/02/24 11:01:12;;;;;;;5.17;3.67;;;12.50;1.00;;;;;;5071984;28;20736;-74
2022/02/24 11:03:40;;;;;;;7.37;3.70;;;12.60;1.00;;;;;;5067797;28;20516;-74
2022/02/24 11:06:08;;;;;;;5.10;3.33;;;12.60;1.00;;;;;;5065570;28;20742;-75
2022/02/24 11:08:35;;;;;;;14.20;4.37;;;12.80;1.00;;;;;;5073755;28;20883;-74
2022/02/24 11:11:02;;;;;;;7.20;4.23;;;12.90;1.00;;;;;;5063898;28;20401;-74
2022/02/24 11:13:29;;;;;;;6.60;3.83;;;12.90;1.00;;;;;;5064608;28;20400;-74
2022/02/24 11:15:59;;;;;;;9.50;4.40;;;13.10;1.00;;;;;;5073356;28;20479;-74
2022/02/24 11:18:25;;;;;;;6.43;3.53;;;13.20;1.00;;;;;;5073181;28;20989;-74
2022/02/24 11:20:55;;;;;;;5.37;3.93;;;13.10;1.00;;;;;;5073257;28;20816;-74
2022/02/24 11:23:26;;;;;;;6.03;3.93;;;13.10;1.00;;;;;;5072364;28;20888;-74
2022/02/24 11:26:01;;;;;;;4.97;3.97;;;13.10;1.00;;;;;;5072995;28;20830;-74
2022/02/24 11:28:33;;;;;;;4.13;3.73;;;13.30;1.00;;;;;;5073480;28;20409;-75
2022/02/24 11:31:06;;;;;;;4.50;3.70;;;13.20;1.00;;;;;;5072160;28;20927;-74
2022/02/24 11:33:33;;;;;;;6.20;3.77;;;13.20;1.00;;;;;;5072887;28;20452;-74
2022/02/24 11:36:10;;;;;;;7.20;3.60;;;13.20;1.00;;;;;;5071835;28;20833;-74
2022/02/24 11:38:40;;;;;;;8.67;4.13;;;13.30;1.00;;;;;;5073099;28;20372;-74
2022/02/24 11:41:07;;;;;;;5.90;3.43;;;13.20;1.00;;;;;;5073166;28;20398;-74
2022/02/24 11:43:35;;;;;;;5.47;3.97;;;13.30;1.00;;;;;;5072661;28;20391;-74
2022/02/24 11:46:04;;;;;;;4.07;3.30;;;13.20;1.00;;;;;;5068490;28;20395;-74
2022/02/24 11:48:34;;;;;;;5.33;4.20;;;13.10;1.00;;;;;;5072421;28;20425;-74
2022/02/24 11:51:19;;;;;;;4.20;3.17;;;13.30;1.00;;;;;;5071396;28;20423;-74
2022/02/24 11:53:49;;;;;;;9.70;3.73;;;13.60;1.00;;;;;;5066983;28;20417;-73
2022/02/24 11:56:17;;;;;;;4.43;3.40;;;13.60;1.00;;;;;;5085512;28;20424;-75
2022/02/24 11:59:02;;;;;;;3.93;3.00;;;13.60;1.00;;;;;;5059588;28;20475;-75
2022/02/24 12:01:42;;;;;;;8.33;3.50;;;13.70;1.00;;;;;;5070648;28;20400;-75
2022/02/24 12:04:18;;;;;;;6.90;3.03;;;13.80;1.00;;;;;;5071016;28;20961;-75
2022/02/24 12:07:12;;;;;;;3.20;2.60;;;13.80;1.00;;;;;;5071348;28;20391;-75
2022/02/24 12:09:38;;;;;;;4.73;3.00;;;13.90;1.00;;;;;;5073379;28;20412;-74
2022/02/24 12:12:23;;;;;;;4.73;3.00;;;13.90;1.00;;;;;;5071175;28;20441;-74
2022/02/24 12:15:01;;;;;;;4.70;2.80;;;14.00;1.00;;;;;;5057711;28;20903;-74
2022/02/24 12:17:43;;;;;;;6.23;3.00;;;14.20;1.00;;;;;;5072143;28;20518;-74
2022/02/24 12:20:26;;;;;;;3.53;2.47;;;14.10;1.00;;;;;;5072678;28;20422;-75
2022/02/24 12:22:52;;;;;;;3.73;2.10;;;14.10;1.00;;;;;;5059259;28;20751;-74
2022/02/24 12:25:27;;;;;;;10.10;2.53;;;14.10;1.00;;;;;;5070163;28;20381;-75
2022/02/24 12:28:05;;;;;;;3.83;2.73;;;14.10;1.00;;;;;;5065285;28;20406;-74
2022/02/24 12:30:36;;;;;;;3.17;2.57;;;14.10;1.00;;;;;;5072689;28;20420;-74
2022/02/24 12:33:15;;;;;;;3.60;2.37;;;14.20;1.00;;;;;;5072587;28;20408;-74
2022/02/24 12:35:45;;;;;;;3.57;2.37;;;14.20;1.00;;;;;;5072026;28;20915;-74
2022/02/24 12:38:17;;;;;;;2.33;2.13;;;14.50;1.00;;;;;;5071715;28;20445;-74
2022/02/24 12:40:50;;;;;;;3.50;2.47;;;14.40;1.00;;;;;;5063610;28;20768;-74
2022/02/24 12:43:22;;;;;;;2.57;1.90;;;14.50;1.00;;;;;;5072520;28;20372;-74
2022/02/24 12:45:48;;;;;;;3.43;2.30;;;14.50;1.00;;;;;;5071848;28;20388;-74
2022/02/24 12:48:16;;;;;;;2.83;1.80;;;14.40;1.00;;;;;;5071833;28;20427;-74
2022/02/24 12:50:44;;;;;;;4.23;2.17;;;14.10;1.00;;;;;;5072132;28;20401;-75
2022/02/24 12:53:16;;;;;;;4.63;2.00;;;13.90;1.00;;;;;;5071294;28;20427;-74
2022/02/24 12:55:43;;;;;;;2.47;1.80;;;13.90;1.00;;;;;;5072022;28;20928;-75
2022/02/24 12:58:12;;;;;;;2.27;2.00;;;13.80;1.00;;;;;;5072295;28;20428;-74
2022/02/24 13:00:40;;;;;;;6.00;2.30;;;13.70;1.00;;;;;;5070968;28;20406;-74
2022/02/24 13:03:07;;;;;;;5.57;2.60;;;13.50;1.00;;;;;;5071694;28;20392;-74
2022/02/24 13:05:34;;;;;;;2.07;1.57;;;13.50;1.00;;;;;;5062341;28;20457;-74
2022/02/24 13:11:01;;;;;;;18.90;11.23;;;13.20;1.00;;;;;;5072103;28;20394;-74
2022/02/24 13:13:27;;;;;;;16.50;5.23;;;13.00;1.00;;;;;;5070012;28;20848;-74
2022/02/24 13:16:00;;;;;;;1.03;1.00;;;13.00;1.00;;;;;;5063817;28;20435;-75
2022/02/24 13:18:27;;;;;;;1.73;1.30;;;12.80;1.00;;;;;;5072044;28;20427;-74
2022/02/24 13:21:01;;;;;;;1.73;1.20;;;12.70;1.00;;;;;;5071915;28;20464;-74
2022/02/24 13:23:28;;;;;;;3.57;1.73;;;12.80;1.00;;;;;;5072943;28;20372;-74
2022/02/24 13:25:58;;;;;;;3.73;1.60;;;12.80;1.00;;;;;;5075844;28;20404;-75
2022/02/24 13:28:34;;;;;;;5.10;2.37;;;12.80;1.00;;;;;;5075140;28;20424;-75
2022/02/24 13:31:05;;;;;;;4.40;1.13;;;12.80;1.00;;;;;;5075805;28;20387;-74
2022/02/24 13:33:37;;;;;;;50.97;14.53;;;12.80;1.00;;;;;;5074553;28;20920;-75
2022/02/24 13:36:04;;;;;;;3.53;1.83;;;12.70;1.00;;;;;;5074288;28;20445;-74
2022/02/24 13:38:40;;;;;;;2.90;1.90;;;12.60;1.00;;;;;;5074829;28;20460;-74
2022/02/24 13:41:12;;;;;;;176.23;78.90;;;12.50;1.00;;;;;;5076210;28;20399;-74
2022/02/24 13:43:38;;;;;;;1.37;1.27;;;12.60;1.00;;;;;;5075160;28;20386;-74
2022/02/24 13:46:04;;;;;;;3.00;1.53;;;12.50;1.00;;;;;;5075446;28;20368;-74
2022/02/24 13:48:38;;;;;;;1.70;1.10;;;12.90;1.00;;;;;;5068715;28;20786;-74
2022/02/24 13:51:03;;;;;;;2.43;1.27;;;13.00;1.00;;;;;;5074662;28;20558;-74
2022/02/24 13:53:31;;;;;;;5.73;1.73;;;13.00;1.00;;;;;;5067712;28;20399;-74
2022/02/24 13:56:02;;;;;;;2.43;1.17;;;13.00;1.00;;;;;;5054142;28;20211;-75
2022/02/24 13:58:33;;;;;;;3.93;1.30;;;13.00;1.00;;;;;;5070134;28;20430;-73
2022/02/24 14:01:05;;;;;;;3.70;1.87;;;13.00;1.00;;;;;;5075340;28;20375;-73
2022/02/24 14:03:40;;;;;;;87.80;31.00;;;12.50;1.00;;;;;;5074066;28;20420;-73
2022/02/24 14:06:09;;;;;;;256.03;96.40;;;12.50;1.00;;;;;;5073869;28;20403;-73
2022/02/24 14:08:35;;;;;;;3.37;1.40;;;12.50;1.00;;;;;;5073307;28;20833;-74
2022/02/24 14:11:06;;;;;;;1.80;1.27;;;12.40;1.00;;;;;;5081981;28;20417;-73
2022/02/24 14:13:33;;;;;;;1.27;1.07;;;12.40;1.00;;;;;;5081846;28;20459;-73
2022/02/24 14:15:58;;;;;;;1.33;0.93;;;12.40;1.00;;;;;;5058921;28;20470;-74
2022/02/24 14:18:24;;;;;;;1.47;1.20;;;12.20;1.00;;;;;;5074294;28;20481;-75
2022/02/24 14:20:51;;;;;;;1.90;0.97;;;12.20;1.00;;;;;;5073513;28;20198;-75
2022/02/24 14:23:17;;;;;;;1.80;1.07;;;12.20;1.00;;;;;;5074951;28;20196;-76
2022/02/24 14:25:43;;;;;;;1.53;1.00;;;12.20;1.00;;;;;;5075273;28;20389;-78
2022/02/24 14:28:09;;;;;;;1.00;0.90;;;;;;;;;;5074511;28;20913;-75
2022/02/24 14:30:35;;;;;;;1.47;1.20;;;12.00;1.00;;;;;;5073625;28;20473;-74
2022/02/24 14:33:01;;;;;;;1.20;0.93;;;11.90;1.00;;;;;;5074698;28;20460;-73
2022/02/24 14:35:28;;;;;;;1.33;0.90;;;11.90;1.00;;;;;;5074361;28;20182;-73
2022/02/24 14:37:53;;;;;;;1.27;0.90;;;11.90;1.00;;;;;;5074309;28;20457;-74
2022/02/24 14:40:22;;;;;;;3.03;1.17;;;12.00;1.00;;;;;;5073104;28;20429;-75
2022/02/24 14:42:47;;;;;;;1.83;0.90;;;12.00;1.00;;;;;;5074303;28;20650;-77
2022/02/24 14:45:13;;;;;;;2.00;1.33;;;12.30;1.00;;;;;;5073922;28;20473;-75
2022/02/24 14:47:39;;;;;;;1.00;0.90;;;12.00;1.00;;;;;;5078114;28;20190;-75
2022/02/24 14:50:05;;;;;;;1.53;1.03;;;12.10;1.00;;;;;;5068898;28;20179;-75
2022/02/24 14:52:31;;;;;;;2.20;0.80;;;11.90;1.00;;;;;;5074286;28;20687;-76
2022/02/24 14:54:58;;;;;;;3.43;1.00;;;12.00;1.00;;;;;;5073417;28;20452;-76
2022/02/24 14:57:24;;;;;;;2.97;0.97;;;12.00;1.00;;;;;;5066402;28;20547;-74
2022/02/24 14:59:50;;;;;;;2.17;1.10;;;12.00;1.00;;;;;;5062450;28;20417;-74